createdAt,value
2023-02-08T00:00:39.004Z,9.40
2023-02-08T00:03:06.150Z,10.20
2023-02-08T00:05:33.260Z,10.20
2023-02-08T00:08:03.273Z,9.80
2023-02-08T00:10:30.500Z,9.60
2023-02-08T00:12:59.817Z,10.20
2023-02-08T00:15:28.014Z,9.80
2023-02-08T00:17:55.763Z,9.40
2023-02-08T00:20:22.872Z,9.60
2023-02-08T00:22:50.775Z,10.00
2023-02-08T00:25:19.780Z,9.20
2023-02-08T00:27:46.709Z,9.50
2023-02-08T00:30:13.651Z,9.90
2023-02-08T00:32:40.560Z,9.60
2023-02-08T00:35:07.786Z,9.70
2023-02-08T00:37:34.846Z,9.40
2023-02-08T00:40:02.152Z,9.90
2023-02-08T00:42:29.665Z,8.90
2023-02-08T00:44:57.422Z,9.00
2023-02-08T00:47:24.512Z,9.60
2023-02-08T00:49:51.754Z,9.30
2023-02-08T00:52:18.801Z,9.70
2023-02-08T00:54:46.335Z,9.80
2023-02-08T00:57:13.873Z,8.90
2023-02-08T00:59:40.753Z,9.50
2023-02-08T01:02:09.484Z,9.90
2023-02-08T01:04:37.377Z,10.70
2023-02-08T01:07:04.774Z,10.10
2023-02-08T01:09:32.076Z,9.60
2023-02-08T01:12:05.521Z,8.90
2023-02-08T01:14:33.707Z,10.30
2023-02-08T01:17:00.808Z,9.20
2023-02-08T01:19:31.104Z,9.70
2023-02-08T01:21:58.229Z,9.50
2023-02-08T01:24:25.150Z,10.00
2023-02-08T01:26:52.203Z,9.90
2023-02-08T01:29:19.430Z,10.30
2023-02-08T01:31:46.570Z,9.70
2023-02-08T01:34:13.679Z,9.50
2023-02-08T01:36:43.736Z,9.40
2023-02-08T01:39:11.047Z,9.60
2023-02-08T01:41:43.439Z,11.20
2023-02-08T01:44:13.509Z,10.00
2023-02-08T01:46:42.516Z,10.00
2023-02-08T01:49:23.488Z,10.10
2023-02-08T01:52:10.066Z,7.70
2023-02-08T01:54:43.798Z,9.60
2023-02-08T01:57:11.131Z,9.60
2023-02-08T01:59:40.854Z,8.80
2023-02-08T02:02:10.872Z,9.00
2023-02-08T02:04:38.079Z,10.30
2023-02-08T02:07:05.048Z,10.20
2023-02-08T02:09:52.817Z,10.10
2023-02-08T02:12:19.792Z,9.60
2023-02-08T02:14:46.749Z,10.80
2023-02-08T02:17:14.678Z,10.00
2023-02-08T02:20:02.776Z,9.60
2023-02-08T02:22:45.665Z,8.80
2023-02-08T02:25:41.751Z,8.30
2023-02-08T02:28:15.162Z,9.80
2023-02-08T02:30:51.297Z,10.50
2023-02-08T02:33:40.025Z,9.70
2023-02-08T02:36:36.567Z,9.20
2023-02-08T02:39:40.057Z,9.60
2023-02-08T02:42:32.622Z,9.30
2023-02-08T02:45:30.315Z,10.10
2023-02-08T02:48:11.923Z,9.70
2023-02-08T02:50:54.864Z,9.80
2023-02-08T02:53:51.362Z,10.30
2023-02-08T02:56:23.725Z,10.10
2023-02-08T02:58:50.776Z,11.60
2023-02-08T03:01:25.514Z,10.80
2023-02-08T03:03:53.315Z,10.80
2023-02-08T03:06:59.496Z,11.40
2023-02-08T03:09:35.959Z,10.80
2023-02-08T03:12:10.958Z,10.40
2023-02-08T03:14:58.350Z,10.70
2023-02-08T03:17:41.117Z,11.60
2023-02-08T03:20:10.314Z,11.60
2023-02-08T03:22:41.421Z,11.70
2023-02-08T03:25:23.559Z,13.10
2023-02-08T03:28:09.457Z,10.30
2023-02-08T03:30:46.556Z,12.20
2023-02-08T03:33:18.465Z,12.30
2023-02-08T03:35:56.832Z,12.80
2023-02-08T03:38:30.574Z,12.00
2023-02-08T03:40:58.880Z,13.20
2023-02-08T03:43:42.265Z,13.40
2023-02-08T03:46:22.222Z,13.50
2023-02-08T03:48:53.945Z,13.10
2023-02-08T03:51:20.940Z,10.80
2023-02-08T03:53:48.596Z,11.70
2023-02-08T03:56:22.141Z,12.80
2023-02-08T03:58:57.708Z,12.80
2023-02-08T04:01:38.316Z,11.80
2023-02-08T04:04:05.459Z,14.10
2023-02-08T04:06:32.761Z,12.90
2023-02-08T04:08:59.767Z,13.20
2023-02-08T04:11:28.421Z,12.70
2023-02-08T04:13:56.341Z,13.70
2023-02-08T04:16:23.239Z,12.50
2023-02-08T04:18:50.116Z,13.10
2023-02-08T04:21:17.051Z,13.00
2023-02-08T04:23:44.000Z,13.70
2023-02-08T04:26:11.083Z,13.80
2023-02-08T04:28:38.484Z,13.80
2023-02-08T04:31:05.469Z,14.30
2023-02-08T04:33:33.915Z,13.80
2023-02-08T04:36:00.824Z,14.30
2023-02-08T04:38:27.845Z,14.70
2023-02-08T04:40:54.920Z,14.20
2023-02-08T04:43:21.801Z,15.10
2023-02-08T04:45:51.794Z,13.90
2023-02-08T04:48:19.025Z,15.60
2023-02-08T04:50:46.153Z,14.80
2023-02-08T04:53:13.114Z,14.80
2023-02-08T04:55:40.863Z,14.40
2023-02-08T04:58:08.606Z,14.20
2023-02-08T05:00:36.520Z,14.80
2023-02-08T05:03:06.197Z,15.20
2023-02-08T05:05:33.894Z,16.30
2023-02-08T05:08:02.335Z,15.70
2023-02-08T05:10:29.685Z,16.60
2023-02-08T05:12:56.568Z,18.10
2023-02-08T05:15:23.534Z,15.90
2023-02-08T05:17:50.492Z,17.50
2023-02-08T05:20:18.658Z,17.10
2023-02-08T05:22:45.455Z,17.00
2023-02-08T05:25:12.993Z,16.20
2023-02-08T05:27:40.052Z,16.90
2023-02-08T05:30:07.510Z,17.90
2023-02-08T05:32:35.828Z,18.60
2023-02-08T05:35:03.596Z,18.90
2023-02-08T05:37:31.008Z,19.10
2023-02-08T05:39:59.032Z,19.50
2023-02-08T05:42:26.548Z,18.60
2023-02-08T05:44:53.649Z,17.60
2023-02-08T05:47:22.118Z,17.30
2023-02-08T05:49:48.929Z,17.00
2023-02-08T05:52:16.104Z,17.70
2023-02-08T05:54:43.559Z,15.80
2023-02-08T05:57:11.936Z,16.10
2023-02-08T05:59:39.213Z,16.90
2023-02-08T06:02:07.090Z,15.30
2023-02-08T06:04:37.978Z,15.50
2023-02-08T06:07:06.390Z,18.50
2023-02-08T06:09:33.276Z,17.60
2023-02-08T06:12:00.069Z,16.90
2023-02-08T06:14:27.918Z,18.80
2023-02-08T06:16:55.190Z,17.10
2023-02-08T06:19:22.034Z,15.60
2023-02-08T06:21:49.084Z,16.40
2023-02-08T06:24:16.131Z,17.20
2023-02-08T06:26:43.916Z,18.10
2023-02-08T06:29:10.809Z,18.10
2023-02-08T06:31:38.447Z,17.20
2023-02-08T06:34:05.948Z,16.60
2023-02-08T06:36:33.495Z,16.70
2023-02-08T06:39:00.359Z,17.10
2023-02-08T06:41:27.170Z,16.50
2023-02-08T06:43:54.736Z,17.50
2023-02-08T06:46:22.893Z,16.90
2023-02-08T06:48:49.771Z,17.20
2023-02-08T06:51:16.670Z,18.10
2023-02-08T06:53:43.511Z,16.30
2023-02-08T06:56:10.917Z,16.20
2023-02-08T06:58:38.288Z,16.30
2023-02-08T07:01:05.391Z,16.30
2023-02-08T07:03:33.907Z,16.40
2023-02-08T07:06:05.274Z,16.10
2023-02-08T07:08:33.513Z,16.60
2023-02-08T07:11:08.578Z,16.40
2023-02-08T07:13:36.487Z,16.50
2023-02-08T07:16:04.689Z,15.60
2023-02-08T07:18:31.953Z,15.60
2023-02-08T07:20:58.881Z,15.20
2023-02-08T07:23:25.866Z,15.50
2023-02-08T07:26:00.513Z,17.40
2023-02-08T07:28:27.736Z,21.60
2023-02-08T07:30:59.201Z,24.00
2023-02-08T07:33:30.418Z,27.60
2023-02-08T07:36:05.619Z,22.30
2023-02-08T07:38:36.097Z,19.40
2023-02-08T07:41:05.123Z,20.00
2023-02-08T07:43:34.395Z,19.00
2023-02-08T07:46:09.357Z,19.90
2023-02-08T07:48:39.127Z,18.20
2023-02-08T07:51:08.118Z,18.00
2023-02-08T07:53:36.082Z,16.20
2023-02-08T07:56:03.370Z,16.50
2023-02-08T07:58:30.550Z,16.30
2023-02-08T08:00:59.630Z,16.70
2023-02-08T08:03:28.215Z,17.30
2023-02-08T08:05:55.287Z,16.10
2023-02-08T08:08:22.699Z,17.50
2023-02-08T08:10:49.921Z,21.90
2023-02-08T08:13:17.991Z,19.10
2023-02-08T08:15:46.516Z,21.20
2023-02-08T08:18:14.514Z,21.80
2023-02-08T08:20:42.638Z,22.40
2023-02-08T08:23:09.866Z,21.70
2023-02-08T08:25:37.528Z,21.40
2023-02-08T08:28:04.775Z,21.40
2023-02-08T08:30:34.182Z,21.70
2023-02-08T08:33:01.599Z,22.80
2023-02-08T08:35:28.875Z,22.10
2023-02-08T08:37:55.842Z,22.50
2023-02-08T08:40:25.117Z,22.60
2023-02-08T08:42:53.065Z,22.00
2023-02-08T08:45:21.329Z,19.30
2023-02-08T08:47:48.206Z,18.50
2023-02-08T08:50:17.390Z,19.80
2023-02-08T08:52:44.242Z,21.70
2023-02-08T08:55:12.158Z,19.60
2023-02-08T08:57:39.017Z,20.00
2023-02-08T09:00:06.253Z,19.60
2023-02-08T09:02:34.369Z,19.80
2023-02-08T09:05:04.927Z,21.80
2023-02-08T09:07:32.591Z,20.90
2023-02-08T09:10:03.324Z,19.20
2023-02-08T09:12:30.610Z,20.20
2023-02-08T09:14:57.587Z,21.00
2023-02-08T09:17:24.389Z,23.20
2023-02-08T09:19:51.729Z,19.10
2023-02-08T09:22:19.729Z,18.90
2023-02-08T09:24:46.847Z,18.50
2023-02-08T09:27:14.372Z,20.40
2023-02-08T09:29:41.358Z,20.50
2023-02-08T09:32:10.201Z,22.40
2023-02-08T09:34:37.463Z,21.90
2023-02-08T09:37:06.487Z,21.90
2023-02-08T09:39:34.542Z,23.20
2023-02-08T09:42:01.344Z,22.00
2023-02-08T09:44:51.718Z,20.30
2023-02-08T09:47:25.775Z,20.60
2023-02-08T09:49:57.489Z,22.10
2023-02-08T09:52:47.749Z,22.10
2023-02-08T09:55:57.348Z,16.30
2023-02-08T09:58:29.719Z,13.00
2023-02-08T10:00:56.740Z,12.40
2023-02-08T10:03:36.590Z,12.60
2023-02-08T10:06:08.155Z,12.30
2023-02-08T10:08:37.709Z,12.80
2023-02-08T10:11:42.933Z,12.00
2023-02-08T10:14:22.358Z,12.30
2023-02-08T10:17:17.502Z,11.00
2023-02-08T10:19:50.482Z,9.80
2023-02-08T10:22:18.186Z,9.50
2023-02-08T10:25:04.172Z,8.90
2023-02-08T10:27:40.092Z,9.50
2023-02-08T10:30:37.318Z,9.80
2023-02-08T10:33:33.536Z,8.90
2023-02-08T10:36:13.143Z,10.30
2023-02-08T10:38:46.678Z,10.20
2023-02-08T10:41:22.977Z,9.50
2023-02-08T10:44:16.341Z,9.50
2023-02-08T10:46:46.998Z,10.10
2023-02-08T10:50:02.234Z,9.60
2023-02-08T10:52:29.411Z,9.50
2023-02-08T10:54:57.524Z,10.30
2023-02-08T10:57:33.520Z,9.10
2023-02-08T11:00:02.889Z,9.40
2023-02-08T11:02:32.432Z,10.10
2023-02-08T11:05:07.855Z,13.10
2023-02-08T11:07:36.671Z,15.60
2023-02-08T11:10:20.704Z,10.10
2023-02-08T11:13:03.287Z,16.20
2023-02-08T11:15:53.999Z,11.80
2023-02-08T11:18:33.465Z,11.90
2023-02-08T11:21:05.038Z,11.80
2023-02-08T11:23:40.112Z,10.40
2023-02-08T11:26:19.533Z,9.50
2023-02-08T11:29:13.585Z,8.70
2023-02-08T11:32:04.201Z,8.40
2023-02-08T11:34:38.291Z,11.80
2023-02-08T11:37:15.640Z,11.00
2023-02-08T11:39:44.712Z,8.90
2023-02-08T11:42:37.544Z,9.30
2023-02-08T11:45:05.042Z,10.20
2023-02-08T11:47:33.674Z,10.40
2023-02-08T11:50:07.285Z,10.90
2023-02-08T11:52:37.794Z,11.10
2023-02-08T11:55:17.767Z,12.30
2023-02-08T11:58:04.901Z,11.30
2023-02-08T12:00:36.180Z,11.40
2023-02-08T12:03:25.679Z,12.30
2023-02-08T12:06:20.289Z,12.70
2023-02-08T12:09:14.226Z,11.00
2023-02-08T12:11:45.868Z,11.80
2023-02-08T12:14:35.006Z,12.50
2023-02-08T12:17:43.816Z,11.60
2023-02-08T12:20:33.334Z,11.80
2023-02-08T12:23:39.661Z,11.40
2023-02-08T12:26:28.514Z,15.40
2023-02-08T12:29:45.724Z,12.90
2023-02-08T12:32:48.885Z,12.90
2023-02-08T12:35:37.382Z,13.60
2023-02-08T12:38:32.142Z,16.30
2023-02-08T12:41:10.406Z,16.90
2023-02-08T12:44:07.154Z,18.20
2023-02-08T12:46:49.270Z,18.00
2023-02-08T12:49:38.634Z,17.90
2023-02-08T12:52:24.496Z,19.70
2023-02-08T12:55:00.298Z,20.50
2023-02-08T12:57:28.302Z,19.70
2023-02-08T13:00:00.225Z,18.20
2023-02-08T13:02:58.035Z,17.00
2023-02-08T13:05:28.289Z,16.90
2023-02-08T13:08:40.604Z,16.40
2023-02-08T13:11:19.831Z,17.50
2023-02-08T13:13:56.751Z,16.40
2023-02-08T13:16:26.113Z,18.00
2023-02-08T13:19:13.433Z,17.20
2023-02-08T13:21:42.750Z,17.40
2023-02-08T13:24:22.713Z,16.70
2023-02-08T13:26:49.826Z,16.00
2023-02-08T13:29:18.353Z,17.00
2023-02-08T13:31:49.117Z,16.80
2023-02-08T13:34:23.176Z,17.60
2023-02-08T13:37:01.471Z,17.80
2023-02-08T13:39:39.929Z,18.10
2023-02-08T13:42:20.226Z,17.80
2023-02-08T13:44:51.665Z,17.90
2023-02-08T13:47:26.981Z,17.10
2023-02-08T13:49:56.593Z,18.10
2023-02-08T13:52:46.550Z,17.60
2023-02-08T13:55:33.952Z,16.60
2023-02-08T13:58:03.886Z,17.10
2023-02-08T14:00:32.969Z,16.20
2023-02-08T14:03:15.546Z,15.60
2023-02-08T14:05:53.288Z,16.20
2023-02-08T14:08:29.046Z,15.80
2023-02-08T14:11:12.083Z,15.80
2023-02-08T14:14:00.430Z,16.90
2023-02-08T14:16:42.399Z,17.50
2023-02-08T14:19:15.613Z,18.30
2023-02-08T14:24:47.059Z,15.90
2023-02-08T14:27:26.260Z,16.50
2023-02-08T14:29:57.031Z,17.00
2023-02-08T14:32:26.047Z,15.50
2023-02-08T14:35:14.555Z,16.20
2023-02-08T14:37:42.938Z,16.30
2023-02-08T14:40:25.073Z,17.00
2023-02-08T14:42:52.523Z,18.20
2023-02-08T14:45:38.910Z,19.90
2023-02-08T14:48:28.327Z,16.60
2023-02-08T14:51:10.672Z,15.30
2023-02-08T14:53:57.093Z,15.60
2023-02-08T14:56:27.745Z,15.70
2023-02-08T14:59:04.616Z,17.50
2023-02-08T15:01:43.935Z,18.50
2023-02-08T15:04:12.032Z,20.80
2023-02-08T15:06:39.498Z,23.00
2023-02-08T15:09:15.378Z,25.50
2023-02-08T15:11:42.647Z,32.80
2023-02-08T15:14:16.652Z,38.90
2023-02-08T15:16:44.406Z,27.70
2023-02-08T15:19:24.264Z,26.20
2023-02-08T15:21:51.321Z,22.00
2023-02-08T15:24:29.243Z,20.70
2023-02-08T15:26:57.193Z,32.90
2023-02-08T15:29:39.106Z,23.60
2023-02-08T15:32:16.834Z,22.80
2023-02-08T15:34:44.679Z,26.50
2023-02-08T15:37:15.350Z,26.90
2023-02-08T15:39:42.527Z,25.40
2023-02-08T15:42:21.023Z,24.30
2023-02-08T15:44:51.606Z,24.50
2023-02-08T15:47:27.860Z,23.20
2023-02-08T15:49:54.872Z,23.70
2023-02-08T15:52:24.040Z,21.20
2023-02-08T15:54:51.052Z,21.80
2023-02-08T15:57:44.804Z,24.50
2023-02-08T16:00:20.196Z,30.40
2023-02-08T16:03:02.233Z,27.10
2023-02-08T16:05:34.534Z,25.70
2023-02-08T16:08:02.674Z,28.20
2023-02-08T16:10:38.005Z,28.40
2023-02-08T16:13:06.976Z,28.10
2023-02-08T16:15:41.740Z,27.20
2023-02-08T16:18:31.921Z,31.90
2023-02-08T16:20:59.747Z,30.30
2023-02-08T16:23:33.885Z,29.60
2023-02-08T16:26:26.040Z,29.90
2023-02-08T16:28:58.518Z,29.50
2023-02-08T16:31:28.956Z,30.90
2023-02-08T16:33:57.728Z,35.60
2023-02-08T16:36:25.715Z,41.10
2023-02-08T16:39:14.376Z,41.10
2023-02-08T16:42:12.921Z,44.10
2023-02-08T16:44:41.521Z,51.20
2023-02-08T16:47:25.962Z,50.60
2023-02-08T16:49:53.085Z,60.00
2023-02-08T16:52:20.529Z,60.20
2023-02-08T16:54:47.395Z,55.80
2023-02-08T16:57:14.613Z,54.00
2023-02-08T16:59:42.356Z,53.30
2023-02-08T17:02:12.768Z,51.60
2023-02-08T17:04:39.745Z,49.40
2023-02-08T17:07:12.096Z,53.50
2023-02-08T17:09:38.950Z,51.90
2023-02-08T17:12:21.475Z,50.50
2023-02-08T17:14:53.968Z,53.30
2023-02-08T17:17:21.078Z,54.30
2023-02-08T17:19:47.963Z,56.30
2023-02-08T17:22:15.054Z,57.70
2023-02-08T17:24:42.384Z,59.00
2023-02-08T17:27:12.274Z,61.00
2023-02-08T17:29:39.358Z,61.90
2023-02-08T17:32:06.455Z,62.30
2023-02-08T17:34:35.224Z,67.20
2023-02-08T17:37:03.153Z,63.30
2023-02-08T17:39:30.214Z,61.00
2023-02-08T17:41:58.882Z,58.60
2023-02-08T17:44:25.848Z,58.50
2023-02-08T17:46:52.741Z,58.80
2023-02-08T17:49:19.639Z,57.10
2023-02-08T17:51:46.466Z,58.90
2023-02-08T17:54:14.421Z,61.40
2023-02-08T17:56:41.410Z,57.20
2023-02-08T17:59:08.314Z,58.20
2023-02-08T18:01:35.828Z,62.10
2023-02-08T18:04:03.269Z,65.50
2023-02-08T18:06:31.155Z,66.30
2023-02-08T18:09:08.435Z,64.90
2023-02-08T18:11:35.331Z,58.60
2023-02-08T18:14:02.842Z,52.30
2023-02-08T18:16:35.664Z,55.10
2023-02-08T18:19:02.656Z,53.70
2023-02-08T18:21:32.544Z,51.30
2023-02-08T18:24:01.823Z,51.50
2023-02-08T18:26:30.130Z,51.50
2023-02-08T18:28:57.236Z,51.90
2023-02-08T18:31:25.236Z,54.30
2023-02-08T18:33:53.362Z,52.50
2023-02-08T18:36:20.809Z,53.20
2023-02-08T18:38:49.138Z,55.00
2023-02-08T18:41:24.314Z,56.50
2023-02-08T18:43:52.690Z,58.00
2023-02-08T18:46:20.538Z,56.90
2023-02-08T18:48:48.039Z,61.40
2023-02-08T18:51:18.956Z,90.10
2023-02-08T18:53:50.912Z,69.50
2023-02-08T18:56:21.170Z,57.90
2023-02-08T18:58:48.490Z,56.90
2023-02-08T19:01:17.726Z,55.20
2023-02-08T19:03:45.720Z,56.40
2023-02-08T19:06:15.753Z,58.10
2023-02-08T19:08:44.388Z,56.00
2023-02-08T19:11:16.726Z,55.70
2023-02-08T19:13:44.793Z,54.80
2023-02-08T19:16:11.855Z,57.20
2023-02-08T19:18:43.627Z,56.50
2023-02-08T19:21:12.346Z,54.20
2023-02-08T19:23:40.086Z,53.00
2023-02-08T19:26:09.086Z,53.20
2023-02-08T19:45:55.048Z,50.60
2023-02-08T19:51:01.090Z,50.70
2023-02-08T19:53:30.170Z,53.30
2023-02-08T19:56:22.554Z,51.30
2023-02-08T19:58:51.004Z,56.00
2023-02-08T20:01:19.971Z,55.00
2023-02-08T20:03:49.070Z,56.40
2023-02-08T20:06:21.574Z,57.80
2023-02-08T20:08:51.246Z,59.70
2023-02-08T20:11:26.332Z,65.50
2023-02-08T20:13:56.728Z,65.80
2023-02-08T20:16:26.964Z,65.20
2023-02-08T20:18:59.902Z,66.60
2023-02-08T20:21:27.103Z,63.50
2023-02-08T20:23:54.396Z,63.90
2023-02-08T20:26:26.437Z,64.50
2023-02-08T20:28:59.071Z,61.10
2023-02-08T20:31:28.701Z,59.90
2023-02-08T20:33:57.419Z,60.40
2023-02-08T20:36:26.269Z,59.50
2023-02-08T20:38:54.120Z,54.70
2023-02-08T20:41:21.499Z,56.50
2023-02-08T20:43:48.343Z,55.40
2023-02-08T20:46:17.559Z,55.30
2023-02-08T20:48:44.707Z,56.00
2023-02-08T20:51:14.503Z,56.30
2023-02-08T20:53:42.113Z,55.50
2023-02-08T20:56:20.810Z,55.60
2023-02-08T20:58:48.188Z,57.10
2023-02-08T21:01:18.712Z,57.30
2023-02-08T21:03:45.830Z,53.40
2023-02-08T21:06:13.371Z,60.30
2023-02-08T21:08:40.341Z,61.60
2023-02-08T21:11:08.798Z,61.70
2023-02-08T21:13:36.519Z,63.20
2023-02-08T21:16:05.298Z,64.70
2023-02-08T21:18:32.186Z,62.90
2023-02-08T21:21:00.844Z,62.20
2023-02-08T21:23:27.908Z,63.20
2023-02-08T21:25:54.991Z,63.80
2023-02-08T21:28:21.917Z,62.60
2023-02-08T21:31:00.051Z,62.90
2023-02-08T21:33:27.349Z,63.40
2023-02-08T21:35:54.511Z,62.50
2023-02-08T21:38:21.375Z,61.90
2023-02-08T21:40:48.769Z,60.60
2023-02-08T21:43:41.216Z,58.80
2023-02-08T21:46:08.707Z,56.70
2023-02-08T21:48:55.860Z,59.10
2023-02-08T21:51:42.775Z,55.20
2023-02-08T21:54:39.675Z,57.30
2023-02-08T21:57:28.666Z,53.70
2023-02-08T22:00:05.311Z,54.20
2023-02-08T22:02:39.645Z,58.30
2023-02-08T22:05:06.819Z,55.10
2023-02-08T22:07:41.847Z,57.90
2023-02-08T22:10:09.746Z,58.60
2023-02-08T22:12:39.671Z,58.20
2023-02-08T22:15:08.498Z,57.50
2023-02-08T22:17:37.262Z,57.80
2023-02-08T22:20:05.652Z,56.00
2023-02-08T22:22:32.934Z,55.00
2023-02-08T22:24:59.992Z,54.80
2023-02-08T22:27:27.276Z,55.00
2023-02-08T22:29:54.098Z,56.20
2023-02-08T22:32:21.636Z,53.50
2023-02-08T22:34:48.584Z,55.00
2023-02-08T22:37:16.117Z,56.50
2023-02-08T22:39:43.078Z,55.80
2023-02-08T22:42:13.134Z,55.80
2023-02-08T22:44:41.763Z,57.80
2023-02-08T22:47:09.301Z,59.80
2023-02-08T22:49:36.304Z,59.00
2023-02-08T22:52:05.611Z,53.50
2023-02-08T22:54:32.661Z,54.00
2023-02-08T22:56:59.989Z,52.10
2023-02-08T22:59:27.017Z,52.60
2023-02-08T23:01:53.948Z,54.50
2023-02-08T23:04:20.854Z,52.80
2023-02-08T23:06:48.240Z,55.70
2023-02-08T23:09:15.456Z,55.70
2023-02-08T23:11:42.904Z,57.30
2023-02-08T23:14:10.199Z,56.90
2023-02-08T23:16:37.370Z,54.60
2023-02-08T23:19:04.651Z,55.60
2023-02-08T23:21:32.566Z,53.40
2023-02-08T23:23:59.427Z,55.00
2023-02-08T23:26:26.454Z,55.30
2023-02-08T23:28:53.469Z,53.90
2023-02-08T23:31:20.733Z,53.30
2023-02-08T23:33:47.797Z,56.80
2023-02-08T23:36:17.608Z,54.30
2023-02-08T23:38:44.554Z,53.20
2023-02-08T23:41:14.486Z,58.30
2023-02-08T23:43:41.522Z,53.30
2023-02-08T23:46:10.087Z,54.90
2023-02-08T23:48:39.302Z,55.00
2023-02-08T23:51:06.753Z,52.10
2023-02-08T23:53:35.314Z,55.90
2023-02-08T23:56:10.019Z,55.10
2023-02-08T23:58:37.265Z,54.20
